Time;durP1;ratioP1;P1;durP2;ratioP2;P2;SDS_P1;SDS_P2;PMS_P1;PMS_P2;Temp;Humidity;BMP_temperature;BMP_pressure;BME280_temperature;BME280_humidity;BME280_pressure;Samples;Min_cycle;Max_cycle;Signal;HPM_P1;HPM_P2
2022/10/20 00:01:24;;;;;;;9.88;5.03;;;7.20;99.90;;;;;;5052898;28;20044;-76
2022/10/20 00:03:50;;;;;;;10.50;5.25;;;7.20;99.90;;;;;;5053410;28;20083;-76
2022/10/20 00:06:34;;;;;;;7.00;4.90;;;7.20;99.90;;;;;;5047732;28;20032;-76
2022/10/20 00:09:02;;;;;;;8.40;5.90;;;7.20;99.90;;;;;;5047701;28;20449;-76
2022/10/20 00:11:28;;;;;;;7.57;5.30;;;7.10;99.90;;;;;;5044929;28;20045;-76
2022/10/20 00:13:55;;;;;;;10.55;5.20;;;7.10;99.90;;;;;;5052920;28;20036;-76
2022/10/20 00:16:22;;;;;;;8.98;5.18;;;7.10;99.90;;;;;;5052957;28;20049;-76
2022/10/20 00:18:48;;;;;;;10.48;6.05;;;7.10;99.90;;;;;;5053038;28;20098;-76
2022/10/20 00:21:22;;;;;;;10.30;5.63;;;7.10;99.90;;;;;;5052683;28;20041;-76
2022/10/20 00:23:47;;;;;;;10.20;5.03;;;7.00;99.90;;;;;;5053039;28;20462;-76
2022/10/20 00:26:19;;;;;;;9.40;5.35;;;7.00;99.90;;;;;;5036498;28;20072;-76
2022/10/20 00:28:45;;;;;;;10.43;4.82;;;7.00;99.90;;;;;;5052979;28;20091;-76
2022/10/20 00:31:11;;;;;;;9.48;5.75;;;7.00;99.90;;;;;;5052399;28;20049;-76
2022/10/20 00:33:37;;;;;;;9.70;5.25;;;7.00;99.90;;;;;;5052693;28;20091;-76
2022/10/20 00:36:05;;;;;;;9.80;5.40;;;7.00;99.90;;;;;;5052777;28;20076;-77
2022/10/20 00:38:32;;;;;;;9.15;5.85;;;7.00;99.90;;;;;;5052827;28;20449;-77
2022/10/20 00:41:02;;;;;;;9.48;5.15;;;7.00;99.90;;;;;;5052542;28;20053;-77
2022/10/20 00:43:45;;;;;;;9.43;5.13;;;6.90;99.90;;;;;;5052805;28;20402;-77
2022/10/20 00:46:14;;;;;;;9.05;5.50;;;6.90;99.90;;;;;;5052402;28;20041;-76
2022/10/20 00:48:42;;;;;;;8.52;5.60;;;6.90;99.90;;;;;;5052437;28;20040;-77
2022/10/20 00:51:07;;;;;;;8.75;5.15;;;6.90;99.90;;;;;;5051944;28;20076;-77
2022/10/20 00:53:33;;;;;;;10.07;5.93;;;6.90;99.90;;;;;;5035647;28;20079;-77
2022/10/20 00:55:59;;;;;;;10.65;5.22;;;6.80;99.90;;;;;;5051844;28;20124;-76
2022/10/20 00:58:25;;;;;;;10.40;6.07;;;6.80;99.90;;;;;;5052145;28;20074;-76
2022/10/20 01:00:54;;;;;;;12.50;5.05;;;6.80;99.90;;;;;;5052185;28;20044;-75
2022/10/20 01:03:38;;;;;;;12.05;5.70;;;6.80;99.90;;;;;;5051867;28;20079;-76
2022/10/20 01:06:04;;;;;;;8.60;5.10;;;6.80;99.90;;;;;;5052366;28;20508;-76
2022/10/20 01:08:29;;;;;;;9.80;5.50;;;6.70;99.90;;;;;;5035636;28;20053;-78
2022/10/20 01:11:23;;;;;;;11.00;5.80;;;6.70;99.90;;;;;;5035198;28;20033;-75
2022/10/20 01:14:08;;;;;;;7.50;4.88;;;6.70;99.90;;;;;;5051829;28;20040;-76
2022/10/20 01:16:58;;;;;;;11.25;5.03;;;6.70;99.90;;;;;;5035366;28;20033;-76
2022/10/20 01:19:57;;;;;;;8.63;5.10;;;6.60;99.90;;;;;;5051911;28;20044;-77
2022/10/20 01:22:37;;;;;;;9.70;5.00;;;6.60;99.90;;;;;;5034892;28;20158;-77
2022/10/20 01:25:25;;;;;;;9.48;5.60;;;6.60;99.90;;;;;;5051724;28;20037;-77
2022/10/20 01:28:03;;;;;;;8.30;5.10;;;6.60;99.90;;;;;;5051648;28;20048;-76
2022/10/20 01:30:29;;;;;;;8.38;5.68;;;6.60;99.90;;;;;;5051562;28;20044;-76
2022/10/20 01:33:29;;;;;;;8.57;5.75;;;6.50;99.90;;;;;;5051355;28;20032;-77
2022/10/20 01:36:27;;;;;;;10.90;5.68;;;6.50;99.90;;;;;;5051537;28;20052;-77
2022/10/20 01:39:31;;;;;;;10.07;5.50;;;6.50;99.90;;;;;;5051755;28;20060;-77
2022/10/20 01:42:07;;;;;;;10.55;5.38;;;6.50;99.90;;;;;;5043087;28;20068;-76
2022/10/20 01:44:35;;;;;;;9.98;5.40;;;6.50;99.90;;;;;;5051408;28;20037;-76
2022/10/20 01:47:01;;;;;;;7.55;5.05;;;6.50;99.90;;;;;;5051360;28;20044;-76
2022/10/20 01:49:27;;;;;;;8.60;5.72;;;6.50;99.90;;;;;;5051168;28;20045;-76
2022/10/20 01:51:54;;;;;;;8.38;5.00;;;6.50;99.90;;;;;;5050925;28;20521;-75
2022/10/20 01:54:26;;;;;;;8.07;5.25;;;6.50;99.90;;;;;;5050967;28;20048;-76
2022/10/20 01:57:10;;;;;;;10.93;5.05;;;6.50;99.90;;;;;;5051026;28;20037;-76
2022/10/20 01:59:53;;;;;;;8.05;5.05;;;6.40;99.90;;;;;;5051291;28;20456;-76
2022/10/20 02:02:40;;;;;;;10.27;5.35;;;6.40;99.90;;;;;;5050795;28;20043;-77
2022/10/20 02:05:17;;;;;;;9.98;5.05;;;6.40;99.90;;;;;;5050556;28;20045;-75
2022/10/20 02:07:42;;;;;;;11.07;5.15;;;6.40;99.90;;;;;;5038919;28;20037;-76
2022/10/20 02:10:26;;;;;;;8.55;5.50;;;6.40;99.90;;;;;;5050798;28;20043;-75
2022/10/20 02:12:59;;;;;;;10.05;5.32;;;6.40;99.90;;;;;;5050618;28;20043;-76
2022/10/20 02:15:26;;;;;;;7.53;5.18;;;6.40;99.90;;;;;;5050839;28;20380;-77
2022/10/20 02:17:56;;;;;;;7.93;5.30;;;6.40;99.90;;;;;;5050631;28;20052;-77
2022/10/20 02:20:22;;;;;;;8.77;5.10;;;6.40;99.90;;;;;;5050536;28;20036;-77
2022/10/20 02:22:48;;;;;;;11.15;5.43;;;6.40;99.90;;;;;;5033839;28;20029;-76
2022/10/20 02:25:14;;;;;;;8.75;4.97;;;6.40;99.90;;;;;;5050516;28;20116;-77
2022/10/20 02:27:44;;;;;;;9.05;5.43;;;6.30;99.90;;;;;;5050459;28;20121;-75
2022/10/20 02:30:13;;;;;;;10.18;5.70;;;6.30;99.90;;;;;;5034239;28;20072;-76
2022/10/20 02:32:42;;;;;;;6.75;5.07;;;6.30;99.90;;;;;;5050169;28;20044;-77
2022/10/20 02:35:12;;;;;;;7.80;5.43;;;6.20;99.90;;;;;;5050474;28;20044;-77
2022/10/20 02:37:37;;;;;;;11.13;5.60;;;6.20;99.90;;;;;;5050249;28;20041;-76
2022/10/20 02:40:03;;;;;;;8.85;5.60;;;6.30;99.90;;;;;;5050757;28;20064;-76
2022/10/20 02:42:29;;;;;;;6.95;5.35;;;6.20;99.90;;;;;;5050171;28;20403;-77
2022/10/20 02:44:54;;;;;;;8.45;5.15;;;6.20;99.90;;;;;;5050262;28;20032;-76
2022/10/20 02:47:21;;;;;;;8.30;5.38;;;6.20;99.90;;;;;;5050578;28;20240;-77
2022/10/20 02:49:47;;;;;;;9.38;5.78;;;6.20;99.90;;;;;;5050352;28;20133;-77
2022/10/20 02:52:12;;;;;;;9.88;5.82;;;6.20;99.90;;;;;;5050092;28;20043;-77
2022/10/20 02:54:38;;;;;;;10.15;5.50;;;6.20;99.90;;;;;;5050136;28;20037;-76
2022/10/20 02:57:03;;;;;;;9.27;5.55;;;6.20;99.90;;;;;;5050189;28;20053;-77
2022/10/20 02:59:29;;;;;;;11.45;5.78;;;6.20;99.90;;;;;;5050068;28;20041;-77
2022/10/20 03:01:54;;;;;;;8.93;5.60;;;6.10;99.90;;;;;;5050167;28;20037;-76
2022/10/20 03:04:20;;;;;;;8.35;5.40;;;6.20;99.90;;;;;;5050149;28;20110;-76
2022/10/20 03:06:45;;;;;;;9.48;5.88;;;6.10;99.90;;;;;;5050357;28;20445;-76
2022/10/20 03:09:11;;;;;;;11.52;5.90;;;6.20;99.90;;;;;;5050128;28;20095;-78
2022/10/20 03:11:37;;;;;;;11.15;5.82;;;6.10;99.90;;;;;;5049963;28;20506;-77
2022/10/20 03:14:02;;;;;;;11.32;5.95;;;6.10;99.90;;;;;;5049871;28;20048;-76
2022/10/20 03:16:28;;;;;;;12.23;5.85;;;6.00;99.90;;;;;;5050232;28;20040;-76
2022/10/20 03:18:53;;;;;;;10.10;5.93;;;6.00;99.90;;;;;;5050352;28;20036;-76
2022/10/20 03:21:19;;;;;;;11.55;5.85;;;6.10;99.90;;;;;;5053871;28;20457;-76
2022/10/20 03:23:45;;;;;;;9.25;6.50;;;6.10;99.90;;;;;;5054049;28;20041;-78
2022/10/20 03:26:11;;;;;;;12.43;6.25;;;6.00;99.90;;;;;;5053891;28;20068;-76
2022/10/20 03:28:38;;;;;;;12.48;6.22;;;6.00;99.90;;;;;;5037360;28;20079;-77
2022/10/20 03:31:04;;;;;;;11.55;6.50;;;6.00;99.90;;;;;;5053543;28;20052;-76
2022/10/20 03:33:30;;;;;;;11.95;6.97;;;6.00;99.90;;;;;;5053757;28;20414;-76
2022/10/20 03:35:55;;;;;;;9.00;6.68;;;6.00;99.90;;;;;;5053644;28;20194;-76
2022/10/20 03:38:21;;;;;;;11.85;6.78;;;6.00;99.90;;;;;;5054041;28;20466;-77
2022/10/20 03:40:47;;;;;;;10.27;6.65;;;6.00;99.90;;;;;;5053665;28;20043;-76
2022/10/20 03:43:14;;;;;;;12.10;6.45;;;6.10;99.90;;;;;;5053534;28;20033;-77
2022/10/20 03:45:40;;;;;;;9.48;6.28;;;6.00;99.90;;;;;;5037192;28;20490;-76
2022/10/20 03:48:06;;;;;;;11.55;7.13;;;6.00;99.90;;;;;;5053717;28;20032;-77
2022/10/20 03:50:31;;;;;;;8.20;6.47;;;6.00;99.90;;;;;;5036744;28;20052;-78
2022/10/20 03:52:57;;;;;;;8.30;6.72;;;6.00;99.90;;;;;;5053215;28;20037;-76
2022/10/20 03:55:22;;;;;;;12.88;7.20;;;6.10;99.90;;;;;;5053457;28;20041;-76
2022/10/20 03:57:48;;;;;;;11.88;7.35;;;6.10;99.90;;;;;;5053262;28;20055;-77
2022/10/20 04:00:14;;;;;;;10.43;7.38;;;6.00;99.90;;;;;;5053382;28;20441;-76
2022/10/20 04:02:42;;;;;;;9.98;7.07;;;6.10;99.90;;;;;;5053333;28;20052;-79
2022/10/20 04:05:14;;;;;;;12.23;8.15;;;6.10;99.90;;;;;;5053117;28;20087;-78
2022/10/20 04:07:40;;;;;;;16.05;8.30;;;6.10;99.90;;;;;;5048197;28;20131;-76
2022/10/20 04:10:07;;;;;;;12.48;7.68;;;6.10;99.90;;;;;;5053034;28;20460;-76
2022/10/20 04:12:32;;;;;;;10.68;7.85;;;6.10;99.90;;;;;;5036257;28;20098;-77
2022/10/20 04:14:58;;;;;;;11.48;8.50;;;6.10;99.90;;;;;;5053236;28;20450;-76
2022/10/20 04:17:24;;;;;;;13.75;8.10;;;6.10;99.90;;;;;;5036234;28;20055;-77
2022/10/20 04:19:49;;;;;;;15.38;9.00;;;6.10;99.90;;;;;;5052978;28;20060;-76
2022/10/20 04:22:15;;;;;;;14.57;8.35;;;6.10;99.90;;;;;;5052658;28;20064;-76
2022/10/20 04:24:40;;;;;;;16.52;8.65;;;6.10;99.90;;;;;;5052657;28;20423;-78
2022/10/20 04:27:06;;;;;;;13.93;8.40;;;6.20;99.90;;;;;;5036149;28;20032;-78
2022/10/20 04:29:32;;;;;;;14.40;8.50;;;6.20;99.90;;;;;;5036233;28;20537;-77
2022/10/20 04:31:58;;;;;;;12.77;8.95;;;6.20;99.90;;;;;;5051800;28;20052;-77
2022/10/20 04:34:23;;;;;;;12.50;7.82;;;6.20;99.90;;;;;;5052541;28;20044;-78
2022/10/20 04:36:49;;;;;;;12.50;8.77;;;6.20;99.90;;;;;;5052824;28;20667;-77
2022/10/20 04:39:15;;;;;;;17.48;8.80;;;6.20;99.90;;;;;;5052415;28;20043;-77
2022/10/20 04:41:40;;;;;;;16.27;9.48;;;6.10;99.90;;;;;;5052426;28;20120;-78
2022/10/20 04:44:06;;;;;;;13.05;8.85;;;6.10;99.90;;;;;;5052352;28;20041;-77
2022/10/20 04:46:31;;;;;;;13.90;9.07;;;6.10;99.90;;;;;;5052825;28;20546;-77
2022/10/20 04:48:57;;;;;;;13.15;9.48;;;6.10;99.90;;;;;;5052507;28;20043;-77
2022/10/20 04:51:23;;;;;;;15.02;9.40;;;6.20;99.90;;;;;;5052000;28;20510;-76
2022/10/20 04:53:48;;;;;;;17.15;10.32;;;6.10;99.90;;;;;;5052487;28;20398;-77
2022/10/20 04:56:19;;;;;;;15.30;10.60;;;6.10;99.90;;;;;;5035597;28;20048;-79
2022/10/20 04:58:49;;;;;;;14.73;9.63;;;6.20;99.90;;;;;;5052291;28;20076;-77
2022/10/20 05:01:14;;;;;;;14.50;9.85;;;6.10;99.90;;;;;;5051950;28;20049;-77
2022/10/20 05:03:40;;;;;;;13.77;9.55;;;6.20;99.90;;;;;;5052337;28;20041;-77
2022/10/20 05:06:15;;;;;;;17.27;9.65;;;6.10;99.90;;;;;;5052189;28;20041;-77
2022/10/20 05:08:42;;;;;;;14.75;9.60;;;6.10;99.90;;;;;;5051904;28;20044;-77
2022/10/20 05:11:08;;;;;;;14.38;10.55;;;6.20;99.90;;;;;;5051784;28;20037;-78
2022/10/20 05:13:34;;;;;;;14.38;10.00;;;6.10;99.90;;;;;;5051889;28;20040;-77
2022/10/20 05:15:59;;;;;;;16.55;11.02;;;6.10;99.90;;;;;;5051839;28;20406;-77
2022/10/20 05:18:25;;;;;;;12.70;9.40;;;6.10;99.90;;;;;;5051864;28;20554;-77
2022/10/20 05:20:50;;;;;;;17.27;10.73;;;6.00;99.90;;;;;;5051636;28;20048;-78
2022/10/20 05:23:16;;;;;;;13.90;9.88;;;6.00;99.90;;;;;;5051579;28;20040;-77
2022/10/20 05:25:41;;;;;;;15.52;10.30;;;6.00;99.90;;;;;;5051585;28;20040;-77
2022/10/20 05:28:07;;;;;;;17.50;10.27;;;6.00;99.90;;;;;;5051797;28;20037;-76
2022/10/20 05:30:34;;;;;;;14.07;10.32;;;6.00;99.90;;;;;;5051564;28;20792;-77
2022/10/20 05:32:59;;;;;;;14.75;10.57;;;6.00;99.90;;;;;;5051425;28;20048;-77
2022/10/20 05:35:26;;;;;;;15.85;10.13;;;6.00;99.90;;;;;;5035120;28;20044;-78
2022/10/20 05:37:52;;;;;;;14.10;10.30;;;6.00;99.90;;;;;;5051407;28;20116;-77
2022/10/20 05:40:17;;;;;;;17.77;10.63;;;6.00;99.90;;;;;;5051933;28;20073;-77
2022/10/20 05:42:43;;;;;;;15.32;11.13;;;6.00;99.90;;;;;;5050413;28;20099;-77
2022/10/20 05:45:08;;;;;;;18.02;11.15;;;6.00;99.90;;;;;;5042349;28;20561;-78
2022/10/20 05:47:34;;;;;;;15.15;10.68;;;5.90;99.90;;;;;;5046819;28;20388;-78
2022/10/20 05:50:00;;;;;;;15.18;11.35;;;5.90;99.90;;;;;;5051066;28;20128;-78
2022/10/20 05:52:25;;;;;;;15.52;11.63;;;5.90;99.90;;;;;;5051181;28;20127;-79
2022/10/20 05:54:51;;;;;;;17.52;11.63;;;5.90;99.90;;;;;;5051083;28;20037;-78
2022/10/20 05:57:16;;;;;;;15.45;11.40;;;6.00;99.90;;;;;;5051236;28;20411;-79
2022/10/20 05:59:42;;;;;;;15.75;10.88;;;5.90;99.90;;;;;;5051434;28;20064;-78
2022/10/20 06:02:09;;;;;;;17.73;11.52;;;5.90;99.90;;;;;;5050837;28;20037;-77
2022/10/20 06:04:35;;;;;;;17.35;11.60;;;5.90;99.90;;;;;;5051117;28;20380;-77
2022/10/20 06:07:00;;;;;;;17.05;11.95;;;5.90;99.90;;;;;;5049770;28;20043;-77
2022/10/20 06:09:26;;;;;;;18.25;11.70;;;5.90;99.90;;;;;;5050707;28;20137;-78
2022/10/20 06:11:53;;;;;;;20.55;12.38;;;5.90;99.90;;;;;;5050731;28;20391;-78
2022/10/20 06:14:21;;;;;;;16.73;12.15;;;5.90;99.90;;;;;;5051085;28;20511;-77
2022/10/20 06:16:49;;;;;;;17.58;11.68;;;5.90;99.90;;;;;;5034279;28;20128;-80
2022/10/20 06:19:15;;;;;;;16.92;12.13;;;5.90;99.90;;;;;;5050868;28;20033;-77
2022/10/20 06:21:40;;;;;;;17.95;11.73;;;5.90;99.90;;;;;;5050528;28;20131;-80
2022/10/20 06:24:06;;;;;;;18.45;12.20;;;5.90;99.90;;;;;;5051066;28;20041;-78
2022/10/20 06:26:35;;;;;;;20.67;12.13;;;5.90;99.90;;;;;;5050981;28;20577;-77
2022/10/20 06:29:02;;;;;;;18.42;12.50;;;6.00;99.90;;;;;;5050618;28;20120;-78
2022/10/20 06:31:30;;;;;;;20.35;12.80;;;6.00;99.90;;;;;;5050697;28;20041;-79
2022/10/20 06:33:56;;;;;;;17.90;12.73;;;6.00;99.90;;;;;;5050451;28;20044;-77
2022/10/20 06:36:24;;;;;;;16.83;12.27;;;6.00;99.90;;;;;;5050625;28;20095;-76
2022/10/20 06:38:57;;;;;;;16.35;12.38;;;6.10;99.90;;;;;;5050804;28;20037;-77
2022/10/20 06:41:24;;;;;;;25.63;12.90;;;6.10;99.90;;;;;;5050397;28;20044;-78
2022/10/20 06:43:56;;;;;;;18.42;12.95;;;6.10;99.90;;;;;;5050710;28;20461;-79
2022/10/20 06:46:22;;;;;;;18.00;12.52;;;6.20;99.90;;;;;;5050398;28;20045;-77
2022/10/20 06:48:47;;;;;;;18.63;12.75;;;6.10;99.90;;;;;;5050424;28;20147;-78
2022/10/20 06:51:15;;;;;;;19.73;12.27;;;6.20;99.90;;;;;;5049931;28;20033;-77
2022/10/20 06:53:42;;;;;;;19.23;12.15;;;6.10;99.90;;;;;;5050010;28;20095;-77
2022/10/20 06:56:11;;;;;;;17.60;12.32;;;6.20;99.90;;;;;;5033460;28;20502;-77
2022/10/20 06:58:38;;;;;;;18.83;12.85;;;6.20;99.90;;;;;;5050583;28;20033;-77
2022/10/20 07:01:05;;;;;;;19.83;12.52;;;6.30;99.90;;;;;;5049946;28;20047;-77
2022/10/20 07:03:32;;;;;;;18.85;13.25;;;6.30;99.90;;;;;;5050123;28;20086;-77
2022/10/20 07:05:58;;;;;;;17.52;13.50;;;6.30;99.90;;;;;;5050402;28;20037;-79
2022/10/20 07:08:26;;;;;;;17.55;12.32;;;6.40;99.90;;;;;;5050416;28;20036;-80
2022/10/20 07:11:11;;;;;;;18.15;12.68;;;6.40;99.90;;;;;;5033610;28;20040;-76
2022/10/20 07:13:36;;;;;;;;;;;6.40;99.90;;;;;;5050674;28;20045;-77
2022/10/20 07:16:03;;;;;;;20.20;11.93;;;6.50;99.90;;;;;;5050312;28;20000;-79
2022/10/20 07:18:29;;;;;;;20.50;12.73;;;6.50;99.90;;;;;;5050167;28;20112;-77
2022/10/20 07:20:59;;;;;;;18.90;12.57;;;6.50;99.90;;;;;;5049744;28;20576;-77
2022/10/20 07:23:30;;;;;;;17.55;12.70;;;6.60;99.90;;;;;;5050336;28;20486;-78
2022/10/20 07:26:05;;;;;;;18.17;12.98;;;6.60;99.90;;;;;;5049898;28;20521;-78
2022/10/20 07:28:32;;;;;;;17.08;11.77;;;6.70;99.90;;;;;;5050340;28;20048;-78
2022/10/20 07:31:04;;;;;;;19.25;12.73;;;6.70;99.90;;;;;;5049709;28;20040;-78
2022/10/20 07:33:30;;;;;;;17.70;12.50;;;6.70;99.90;;;;;;5050225;28;20422;-77
2022/10/20 07:35:56;;;;;;;16.70;12.20;;;6.70;99.90;;;;;;5049836;28;20030;-77
2022/10/20 07:38:22;;;;;;;16.95;11.43;;;6.70;99.90;;;;;;5049711;28;20037;-76
2022/10/20 07:40:47;;;;;;;16.33;12.43;;;6.70;99.90;;;;;;5049948;28;20461;-78
2022/10/20 07:43:13;;;;;;;19.48;12.30;;;6.80;99.90;;;;;;5049670;28;20069;-77
2022/10/20 07:45:38;;;;;;;16.25;12.20;;;6.80;99.90;;;;;;5049868;28;20055;-78
2022/10/20 07:48:05;;;;;;;19.60;11.93;;;6.80;99.90;;;;;;5049766;28;20037;-78
2022/10/20 07:50:32;;;;;;;16.77;12.60;;;6.90;99.90;;;;;;5049785;28;20494;-79
2022/10/20 07:52:57;;;;;;;17.50;12.65;;;6.90;99.90;;;;;;5049423;28;20033;-78
2022/10/20 07:55:23;;;;;;;19.20;12.50;;;6.90;99.90;;;;;;5050021;28;20406;-78
2022/10/20 07:57:48;;;;;;;18.10;12.30;;;7.00;99.90;;;;;;5049618;28;20045;-77
2022/10/20 08:00:14;;;;;;;15.20;11.98;;;7.00;99.90;;;;;;5049714;28;20555;-77
2022/10/20 08:02:40;;;;;;;16.25;12.05;;;7.00;99.90;;;;;;5049469;28;20037;-78
2022/10/20 08:05:06;;;;;;;16.92;11.95;;;7.10;99.90;;;;;;5049957;28;20060;-79
2022/10/20 08:07:32;;;;;;;18.42;11.88;;;7.10;99.90;;;;;;5052915;28;20063;-78
2022/10/20 08:09:58;;;;;;;18.90;12.73;;;7.20;99.90;;;;;;5046657;28;20048;-77
2022/10/20 08:12:23;;;;;;;19.58;13.70;;;7.10;99.90;;;;;;5053258;28;20403;-77
2022/10/20 08:14:50;;;;;;;18.27;12.27;;;7.30;99.90;;;;;;5036518;28;20041;-78
2022/10/20 08:17:16;;;;;;;18.23;12.82;;;7.30;99.90;;;;;;5052977;28;20072;-79
2022/10/20 08:19:41;;;;;;;19.20;13.32;;;7.40;99.90;;;;;;5053095;28;20064;-77
2022/10/20 08:22:07;;;;;;;19.83;12.52;;;7.50;99.90;;;;;;5052681;28;20041;-77
2022/10/20 08:24:32;;;;;;;20.35;12.15;;;7.50;99.90;;;;;;5036726;28;20048;-78
2022/10/20 08:26:59;;;;;;;13.95;11.07;;;7.60;99.90;;;;;;5053157;28;20076;-78
2022/10/20 08:29:25;;;;;;;23.65;12.30;;;7.60;99.90;;;;;;5052822;28;20052;-78
2022/10/20 08:31:50;;;;;;;17.45;12.07;;;7.70;99.90;;;;;;5052966;28;20049;-80
2022/10/20 08:34:16;;;;;;;16.85;12.05;;;7.80;99.90;;;;;;5053233;28;20406;-78
2022/10/20 08:36:41;;;;;;;15.38;11.60;;;7.80;99.90;;;;;;5036232;28;20044;-77
2022/10/20 08:39:07;;;;;;;17.38;11.55;;;7.90;99.90;;;;;;5053029;28;20114;-80
2022/10/20 08:41:37;;;;;;;16.45;11.80;;;8.00;99.90;;;;;;5052678;28;20041;-77
2022/10/20 08:44:05;;;;;;;15.35;10.55;;;8.00;99.90;;;;;;5053039;28;20525;-76
2022/10/20 08:46:34;;;;;;;14.68;11.20;;;8.10;99.90;;;;;;5053010;28;20395;-78
2022/10/20 08:49:02;;;;;;;17.05;11.38;;;8.10;99.90;;;;;;5052976;28;20051;-80
2022/10/20 08:51:32;;;;;;;18.27;11.35;;;8.20;99.90;;;;;;5052603;28;20040;-77
2022/10/20 08:53:59;;;;;;;17.58;11.50;;;8.30;99.90;;;;;;5052472;28;20044;-77
2022/10/20 08:56:28;;;;;;;15.00;10.18;;;8.30;99.90;;;;;;5035886;28;20045;-77
2022/10/20 08:58:54;;;;;;;14.38;10.95;;;8.40;99.90;;;;;;5052460;28;20037;-76
2022/10/20 09:01:26;;;;;;;15.95;10.95;;;8.50;99.90;;;;;;5052046;28;20107;-77
2022/10/20 09:03:58;;;;;;;14.48;10.35;;;8.60;99.90;;;;;;5052391;28;20025;-78
2022/10/20 09:06:24;;;;;;;13.32;10.75;;;8.70;99.90;;;;;;5052396;28;20090;-78
2022/10/20 09:08:50;;;;;;;13.85;10.45;;;8.80;99.90;;;;;;5052478;28;20033;-78
2022/10/20 09:11:24;;;;;;;16.88;10.85;;;8.80;99.90;;;;;;5035945;28;20507;-77
2022/10/20 09:13:50;;;;;;;12.30;9.85;;;9.00;99.90;;;;;;5052642;28;20368;-79
2022/10/20 09:16:27;;;;;;;17.45;10.52;;;9.00;99.90;;;;;;5052476;28;20162;-77
2022/10/20 09:18:56;;;;;;;13.63;10.10;;;9.00;99.90;;;;;;5051752;28;20121;-78
2022/10/20 09:21:22;;;;;;;17.48;10.57;;;9.10;99.90;;;;;;5052296;28;20628;-77
2022/10/20 09:23:51;;;;;;;13.57;9.48;;;9.10;99.90;;;;;;5051820;28;20067;-78
2022/10/20 09:26:32;;;;;;;14.07;9.45;;;9.10;99.90;;;;;;5052004;28;20029;-77
2022/10/20 09:29:08;;;;;;;12.90;10.00;;;9.20;99.90;;;;;;5051779;28;20041;-78
2022/10/20 09:31:40;;;;;;;16.65;10.63;;;9.20;99.90;;;;;;5052055;28;20033;-78
2022/10/20 09:34:29;;;;;;;15.75;9.50;;;9.30;99.90;;;;;;5051908;28;20463;-77
2022/10/20 09:37:12;;;;;;;13.75;9.35;;;9.40;99.90;;;;;;5051678;28;20511;-77
2022/10/20 09:39:53;;;;;;;12.60;9.40;;;9.40;99.90;;;;;;5051765;28;20220;-77
2022/10/20 09:42:23;;;;;;;13.45;9.00;;;9.50;99.90;;;;;;5051686;28;20067;-79
2022/10/20 09:45:15;;;;;;;12.23;8.70;;;9.50;99.90;;;;;;5051585;28;20037;-77
2022/10/20 09:47:47;;;;;;;12.43;9.57;;;9.50;99.90;;;;;;5051567;28;20053;-80
2022/10/20 09:50:26;;;;;;;12.73;8.63;;;9.60;99.90;;;;;;5051267;28;20122;-78
2022/10/20 09:52:52;;;;;;;11.95;8.82;;;9.70;99.90;;;;;;5051071;28;20040;-76
2022/10/20 09:55:30;;;;;;;14.38;9.15;;;9.80;99.90;;;;;;5051611;28;20071;-76
2022/10/20 09:57:58;;;;;;;11.75;8.68;;;9.80;99.90;;;;;;5051091;28;20045;-77
2022/10/20 10:00:31;;;;;;;10.93;8.50;;;9.90;99.90;;;;;;5051446;28;20040;-77
2022/10/20 10:03:20;;;;;;;12.27;8.43;;;10.00;99.90;;;;;;5051455;28;20490;-78
2022/10/20 10:05:50;;;;;;;11.80;8.50;;;10.10;99.90;;;;;;5042434;28;20414;-78
2022/10/20 10:08:16;;;;;;;9.73;7.80;;;10.20;99.90;;;;;;5051217;28;20043;-77
2022/10/20 10:10:44;;;;;;;12.60;8.25;;;10.30;99.90;;;;;;5049590;28;20041;-77
2022/10/20 10:13:23;;;;;;;10.88;8.55;;;10.30;99.90;;;;;;5050683;28;20124;-77
2022/10/20 10:16:03;;;;;;;10.57;8.05;;;10.40;99.90;;;;;;5034147;28;20032;-78
2022/10/20 10:18:29;;;;;;;11.77;8.45;;;10.50;99.90;;;;;;5051094;28;20040;-77
2022/10/20 10:21:02;;;;;;;10.20;7.40;;;10.60;99.90;;;;;;5050707;28;20035;-77
2022/10/20 10:23:30;;;;;;;11.25;7.82;;;10.70;99.90;;;;;;5050721;28;20033;-79
2022/10/20 10:25:55;;;;;;;10.27;7.95;;;10.80;99.90;;;;;;5050652;28;20121;-77
2022/10/20 10:28:36;;;;;;;10.13;7.63;;;10.90;99.90;;;;;;5050775;28;20073;-77
2022/10/20 10:31:19;;;;;;;11.82;7.35;;;11.00;99.90;;;;;;5050262;28;20037;-77
2022/10/20 10:33:45;;;;;;;9.23;7.50;;;11.10;99.90;;;;;;5050653;28;20041;-76
2022/10/20 10:36:19;;;;;;;11.57;7.68;;;11.10;99.90;;;;;;5050648;28;20056;-77
2022/10/20 10:38:45;;;;;;;10.00;7.32;;;11.30;99.90;;;;;;5034289;28;20489;-77
2022/10/20 10:41:24;;;;;;;10.23;7.28;;;11.50;99.90;;;;;;5050934;28;20041;-76
2022/10/20 10:44:15;;;;;;;11.85;7.07;;;11.60;99.90;;;;;;5050364;28;20072;-78
2022/10/20 10:47:13;;;;;;;9.63;7.32;;;11.60;99.90;;;;;;5050721;28;20037;-76
2022/10/20 10:50:20;;;;;;;13.18;7.85;;;11.60;99.90;;;;;;5033943;28;20037;-77
2022/10/20 10:52:49;;;;;;;9.80;7.22;;;11.70;99.90;;;;;;5050222;28;20068;-77
2022/10/20 10:55:22;;;;;;;11.18;7.72;;;11.70;99.90;;;;;;5050472;28;20047;-77
2022/10/20 10:58:10;;;;;;;11.70;7.07;;;11.80;99.90;;;;;;5050358;28;20048;-76
2022/10/20 11:01:17;;;;;;;10.63;7.75;;;11.90;99.90;;;;;;5050241;28;20033;-77
2022/10/20 11:03:57;;;;;;;12.00;7.57;;;11.90;99.90;;;;;;4989849;28;20511;-76
2022/10/20 11:06:29;;;;;;;11.55;6.97;;;12.20;99.90;;;;;;5038499;28;20114;-77
2022/10/20 11:09:31;;;;;;;8.05;6.90;;;12.20;99.90;;;;;;5050345;28;20123;-78
2022/10/20 11:12:25;;;;;;;9.52;6.88;;;12.30;99.90;;;;;;5050124;28;20045;-77
2022/10/20 11:15:16;;;;;;;11.32;7.13;;;12.20;99.90;;;;;;5050024;28;20072;-77
2022/10/20 11:17:54;;;;;;;7.30;6.53;;;12.20;99.90;;;;;;5050048;28;20069;-77
2022/10/20 11:20:48;;;;;;;11.85;7.25;;;12.20;99.90;;;;;;5033494;28;20052;-78
2022/10/20 11:23:38;;;;;;;8.52;6.45;;;12.30;99.90;;;;;;5046690;28;20056;-78
2022/10/20 11:26:10;;;;;;;10.10;6.75;;;12.40;99.90;;;;;;5050324;28;20051;-77
2022/10/20 11:28:44;;;;;;;9.77;6.90;;;12.40;99.90;;;;;;5050452;28;20409;-76
2022/10/20 11:31:22;;;;;;;11.23;7.43;;;12.40;99.90;;;;;;5035978;28;20074;-79
2022/10/20 11:33:58;;;;;;;11.57;7.07;;;12.40;99.90;;;;;;5033170;28;20033;-79
2022/10/20 11:36:30;;;;;;;8.20;6.60;;;12.40;99.90;;;;;;5050130;28;20387;-77
2022/10/20 11:38:56;;;;;;;12.48;6.82;;;12.40;99.90;;;;;;5049811;28;20037;-77
2022/10/20 11:41:25;;;;;;;10.40;6.78;;;12.40;99.90;;;;;;5050802;28;20418;-78
2022/10/20 11:44:18;;;;;;;10.90;7.20;;;12.50;99.90;;;;;;5037250;28;20041;-77
2022/10/20 11:47:07;;;;;;;9.98;6.60;;;12.50;99.90;;;;;;5054031;28;20518;-77
2022/10/20 11:49:33;;;;;;;9.15;6.32;;;12.50;99.90;;;;;;5054124;28;20056;-77
2022/10/20 11:52:40;;;;;;;9.10;6.80;;;12.50;99.90;;;;;;5053499;28;20080;-77
2022/10/20 11:55:18;;;;;;;8.77;7.28;;;12.60;99.90;;;;;;5024956;28;20081;-78
2022/10/20 11:58:00;;;;;;;11.35;7.57;;;12.60;99.90;;;;;;5053624;28;20128;-79
2022/10/20 12:00:59;;;;;;;8.48;6.97;;;12.60;99.90;;;;;;5044674;28;20047;-76
2022/10/20 12:03:37;;;;;;;8.35;7.10;;;12.60;99.90;;;;;;5052984;28;20033;-77
2022/10/20 12:06:21;;;;;;;8.35;6.85;;;12.60;99.90;;;;;;5053958;28;20083;-78
2022/10/20 12:09:12;;;;;;;9.70;7.25;;;12.60;99.90;;;;;;5053714;28;20036;-77
2022/10/20 12:11:56;;;;;;;9.20;6.88;;;12.60;99.90;;;;;;5052026;28;20045;-77
2022/10/20 12:14:38;;;;;;;9.98;7.15;;;12.60;99.90;;;;;;5053171;28;20501;-77
2022/10/20 12:17:12;;;;;;;8.85;7.32;;;12.60;99.90;;;;;;5053406;28;20391;-78
2022/10/20 12:19:39;;;;;;;9.20;7.05;;;12.60;99.90;;;;;;5036868;28;20037;-77
2022/10/20 12:22:14;;;;;;;10.98;7.38;;;12.50;99.90;;;;;;5052910;28;20037;-77
2022/10/20 12:24:50;;;;;;;9.65;7.35;;;12.50;99.90;;;;;;5053271;28;20071;-78
2022/10/20 12:27:21;;;;;;;8.40;7.13;;;12.50;99.90;;;;;;5036353;28;20099;-77
2022/10/20 12:29:49;;;;;;;11.25;7.38;;;12.50;99.90;;;;;;5052948;28;20106;-79
2022/10/20 12:32:25;;;;;;;9.77;7.28;;;12.40;99.90;;;;;;5036821;28;20437;-78
2022/10/20 12:34:54;;;;;;;8.90;7.05;;;12.40;99.90;;;;;;5052771;28;20048;-77
2022/10/20 12:37:23;;;;;;;10.15;6.97;;;12.40;99.90;;;;;;5052794;28;20155;-78
2022/10/20 12:39:50;;;;;;;11.57;7.40;;;12.40;99.90;;;;;;5052906;28;20060;-78
2022/10/20 12:42:24;;;;;;;10.52;7.57;;;12.30;99.90;;;;;;5052570;28;20094;-77
2022/10/20 12:44:51;;;;;;;9.82;7.50;;;12.30;99.90;;;;;;5052628;28;20040;-77
2022/10/20 12:47:22;;;;;;;13.90;7.60;;;12.30;99.90;;;;;;5052776;28;20502;-78
2022/10/20 12:49:59;;;;;;;15.55;7.57;;;12.20;99.90;;;;;;5052589;28;20486;-79
2022/10/20 12:52:38;;;;;;;11.25;8.38;;;12.20;99.90;;;;;;5052369;28;20080;-77
2022/10/20 12:55:06;;;;;;;11.70;8.20;;;12.10;99.90;;;;;;5052709;28;20041;-77
2022/10/20 12:57:40;;;;;;;10.43;8.45;;;12.00;99.90;;;;;;5052588;28;20567;-78
2022/10/20 13:00:18;;;;;;;13.90;9.10;;;11.90;99.90;;;;;;5052819;28;20037;-77
2022/10/20 13:03:24;;;;;;;13.52;9.43;;;11.90;99.90;;;;;;5052008;28;20040;-77